createdAt,value
2022-08-28T09:08:48.915Z,15.20
2022-08-28T09:11:00.778Z,9.17
2022-08-28T09:13:13.761Z,14.33
2022-08-28T09:15:22.043Z,14.67
2022-08-28T09:17:31.724Z,15.93
2022-08-28T09:19:35.056Z,12.47
2022-08-28T09:21:43.095Z,14.03
2022-08-28T09:23:47.279Z,12.50
2022-08-28T09:25:56.452Z,12.27
2022-08-28T09:28:08.215Z,12.50
2022-08-28T09:30:11.797Z,11.50
2022-08-28T09:32:22.446Z,16.33
2022-08-28T09:34:36.763Z,15.33
2022-08-28T09:36:42.439Z,7.50
2022-08-28T09:38:45.441Z,13.73
2022-08-28T09:41:07.768Z,17.63
2022-08-28T09:43:31.523Z,13.37
2022-08-28T09:45:34.335Z,15.03
2022-08-28T09:47:49.636Z,11.93
2022-08-28T09:49:52.840Z,12.00
2022-08-28T09:51:56.328Z,9.03
2022-08-28T09:54:04.703Z,14.03
2022-08-28T09:56:17.973Z,13.37
2022-08-28T09:58:21.246Z,14.43
2022-08-28T10:00:24.273Z,12.00
2022-08-28T10:02:37.800Z,15.07
2022-08-28T10:04:56.103Z,13.90
2022-08-28T10:07:04.738Z,11.07
2022-08-28T10:09:15.993Z,11.13
2022-08-28T10:11:28.279Z,9.83
2022-08-28T10:13:36.287Z,10.57
2022-08-28T10:15:55.033Z,8.67
2022-08-28T10:18:15.206Z,12.53
2022-08-28T10:20:23.816Z,15.40
2022-08-28T10:22:37.511Z,12.53
2022-08-28T10:24:56.217Z,11.07
2022-08-28T10:27:09.003Z,11.80
2022-08-28T10:29:31.025Z,13.57
2022-08-28T10:31:41.647Z,12.63
2022-08-28T10:33:59.918Z,7.93
2022-08-28T10:36:07.837Z,10.67
2022-08-28T10:38:39.848Z,9.37
2022-08-28T10:40:50.559Z,12.43
2022-08-28T10:43:02.022Z,6.50
2022-08-28T10:45:09.354Z,10.27
2022-08-28T10:47:13.269Z,13.37
2022-08-28T10:49:28.043Z,11.87
2022-08-28T10:51:39.464Z,9.23
2022-08-28T10:53:52.900Z,10.67
2022-08-28T10:55:59.193Z,9.10
2022-08-28T10:58:24.806Z,16.53
2022-08-28T11:00:28.997Z,9.73
2022-08-28T11:02:32.894Z,8.93
2022-08-28T11:04:36.521Z,12.30
2022-08-28T11:06:43.079Z,9.70
2022-08-28T11:08:52.933Z,13.30
2022-08-28T11:10:58.236Z,13.20
2022-08-28T11:13:06.227Z,9.87
2022-08-28T11:15:48.037Z,13.40
2022-08-28T11:17:51.502Z,10.60
2022-08-28T11:20:09.968Z,11.93
2022-08-28T11:22:16.621Z,11.03
2022-08-28T11:24:32.163Z,14.57
2022-08-28T11:26:41.783Z,14.07
2022-08-28T11:28:48.231Z,10.50
2022-08-28T11:31:19.150Z,10.67
2022-08-28T11:33:39.729Z,13.23
2022-08-28T11:35:49.541Z,13.27
2022-08-28T11:37:54.780Z,9.87
2022-08-28T11:40:17.010Z,10.57
2022-08-28T11:42:35.719Z,9.33
2022-08-28T11:44:44.811Z,9.73
2022-08-28T11:46:49.174Z,9.10
2022-08-28T11:48:54.898Z,12.73
2022-08-28T11:51:02.263Z,8.57
2022-08-28T11:53:43.460Z,8.70
2022-08-28T11:56:30.565Z,10.50
2022-08-28T11:58:42.067Z,11.03
2022-08-28T12:00:54.753Z,10.33
2022-08-28T12:03:10.524Z,10.70
2022-08-28T12:05:39.917Z,9.27
2022-08-28T12:07:45.783Z,9.97
2022-08-28T12:09:49.705Z,9.07
2022-08-28T12:12:01.922Z,9.57
2022-08-28T12:14:04.776Z,10.90
2022-08-28T12:16:08.687Z,9.10
2022-08-28T12:18:52.491Z,9.07
2022-08-28T12:21:05.325Z,8.13
2022-08-28T12:23:34.635Z,9.47
2022-08-28T12:25:40.393Z,11.13
2022-08-28T12:27:43.784Z,9.83
2022-08-28T12:29:49.716Z,13.73
2022-08-28T12:32:16.397Z,6.97
2022-08-28T12:34:30.082Z,10.93
2022-08-28T12:36:34.751Z,9.77
2022-08-28T12:38:39.737Z,9.20
2022-08-28T12:40:51.112Z,9.80
2022-08-28T12:42:58.232Z,7.30
2022-08-28T12:45:02.974Z,8.33
2022-08-28T12:47:06.720Z,8.50
2022-08-28T12:49:30.217Z,7.77
2022-08-28T12:51:36.576Z,10.47
2022-08-28T12:53:42.183Z,8.90
2022-08-28T12:55:46.593Z,5.80
2022-08-28T12:57:49.962Z,9.77
2022-08-28T12:59:54.784Z,6.90
2022-08-28T13:02:02.698Z,7.77
2022-08-28T13:04:21.882Z,7.27
2022-08-28T13:06:29.405Z,8.40
2022-08-28T13:08:35.047Z,7.60
2022-08-28T13:10:40.169Z,8.63
2022-08-28T13:12:54.722Z,8.20
2022-08-28T13:14:59.767Z,12.20
2022-08-28T13:17:02.974Z,11.47
2022-08-28T13:19:22.001Z,6.97
2022-08-28T13:21:34.894Z,10.20
2022-08-28T13:23:39.823Z,8.20
2022-08-28T13:25:42.652Z,10.73
2022-08-28T13:27:45.536Z,10.20
2022-08-28T13:30:02.755Z,9.10
2022-08-28T13:32:10.197Z,8.32
2022-08-28T13:34:24.578Z,8.30
2022-08-28T13:36:27.456Z,11.03
2022-08-28T13:38:30.304Z,10.90
2022-08-28T13:40:57.535Z,8.33
2022-08-28T13:43:06.915Z,7.67
2022-08-28T13:45:10.406Z,8.10
2022-08-28T13:47:14.581Z,6.50
2022-08-28T13:49:17.387Z,8.23
2022-08-28T13:51:21.556Z,8.00
2022-08-28T13:53:24.328Z,10.57
2022-08-28T13:55:27.285Z,11.93
2022-08-28T13:57:32.072Z,8.90
2022-08-28T13:59:39.023Z,8.82
2022-08-28T14:01:59.372Z,6.57
2022-08-28T14:04:02.169Z,9.20
2022-08-28T14:06:09.175Z,9.60
2022-08-28T14:08:13.195Z,8.00
2022-08-28T14:10:16.162Z,8.53
2022-08-28T14:12:18.952Z,5.32
2022-08-28T14:14:23.483Z,9.00
2022-08-28T14:16:26.505Z,5.57
2022-08-28T14:18:29.336Z,7.82
2022-08-28T14:20:33.323Z,6.95
2022-08-28T14:22:36.860Z,10.57
2022-08-28T14:24:39.672Z,6.60
2022-08-28T14:26:43.201Z,5.07
2022-08-28T14:28:46.441Z,10.43
2022-08-28T14:30:52.540Z,7.85
2022-08-28T14:32:55.329Z,6.97
2022-08-28T14:34:58.084Z,10.48
2022-08-28T14:37:01.665Z,10.85
2022-08-28T14:39:06.819Z,7.18
2022-08-28T14:41:09.890Z,8.93
2022-08-28T14:43:14.832Z,7.90
2022-08-28T14:45:17.857Z,6.93
2022-08-28T14:47:22.008Z,9.55
2022-08-28T14:49:26.075Z,7.50
2022-08-28T14:51:31.337Z,8.90
2022-08-28T14:53:34.185Z,7.85
2022-08-28T14:55:41.481Z,9.18
2022-08-28T14:57:44.657Z,7.47
2022-08-28T14:59:51.636Z,5.63
2022-08-28T15:01:58.061Z,6.32
2022-08-28T15:04:02.521Z,9.80
2022-08-28T15:06:08.224Z,7.97
2022-08-28T15:08:16.096Z,8.93
2022-08-28T15:10:19.009Z,6.30
2022-08-28T15:12:22.581Z,7.72
2022-08-28T15:14:25.866Z,6.88
2022-08-28T15:16:31.927Z,6.97
2022-08-28T15:18:35.417Z,5.82
2022-08-28T15:20:41.274Z,9.02
2022-08-28T15:22:44.631Z,6.15
2022-08-28T15:24:47.669Z,5.57
2022-08-28T15:26:50.662Z,6.70
2022-08-28T15:28:55.913Z,8.63
2022-08-28T15:30:58.738Z,9.10
2022-08-28T15:33:01.612Z,9.05
2022-08-28T15:35:05.027Z,8.77
2022-08-28T15:37:09.577Z,5.70
2022-08-28T15:39:33.936Z,7.47
2022-08-28T15:41:38.029Z,10.05
2022-08-28T15:43:43.036Z,9.77
2022-08-28T15:45:50.983Z,6.40
2022-08-28T15:47:54.192Z,9.70
2022-08-28T15:49:57.725Z,7.10
2022-08-28T15:52:01.057Z,8.80
2022-08-28T15:54:05.419Z,10.13
2022-08-28T15:56:08.380Z,6.47
2022-08-28T15:58:13.688Z,8.50
2022-08-28T16:00:18.114Z,8.80
2022-08-28T16:02:22.930Z,9.70
2022-08-28T16:04:25.908Z,9.40
2022-08-28T16:06:29.254Z,8.47
2022-08-28T16:08:32.093Z,8.37
2022-08-28T16:10:36.243Z,9.33
2022-08-28T16:12:39.684Z,10.33
2022-08-28T16:14:42.961Z,7.97
2022-08-28T16:16:46.428Z,7.57
2022-08-28T16:18:53.940Z,7.63
2022-08-28T16:20:58.068Z,9.23
2022-08-28T16:23:03.472Z,8.73
2022-08-28T16:25:07.506Z,6.67
2022-08-28T16:27:15.339Z,8.00
2022-08-28T16:29:18.606Z,5.30
2022-08-28T16:31:24.168Z,4.43
2022-08-28T16:33:27.164Z,5.73
2022-08-28T16:35:30.169Z,6.17
2022-08-28T16:37:37.718Z,6.07
2022-08-28T16:39:42.843Z,5.37
2022-08-28T16:41:49.913Z,7.20
2022-08-28T16:43:54.800Z,6.95
2022-08-28T16:45:57.693Z,8.43
2022-08-28T16:48:01.241Z,9.97
2022-08-28T16:50:08.411Z,6.15
2022-08-28T16:52:11.291Z,7.57
2022-08-28T16:54:15.377Z,7.73
2022-08-28T16:56:19.315Z,10.57
2022-08-28T16:58:22.172Z,6.63
2022-08-28T17:00:27.219Z,8.88
2022-08-28T17:02:30.272Z,8.60
2022-08-28T17:04:33.225Z,6.13
2022-08-28T17:06:36.143Z,5.13
2022-08-28T17:08:39.591Z,8.93
2022-08-28T17:10:45.469Z,5.93
2022-08-28T17:12:48.300Z,7.57
2022-08-28T17:14:51.680Z,5.93
2022-08-28T17:16:56.148Z,3.40
2022-08-28T17:18:59.817Z,7.17
2022-08-28T17:21:20.497Z,5.30
2022-08-28T17:23:23.362Z,7.77
2022-08-28T17:25:26.351Z,7.80
2022-08-28T17:27:29.632Z,9.97
2022-08-28T17:29:32.553Z,5.37
2022-08-28T17:31:35.382Z,5.43
2022-08-28T17:33:40.153Z,6.80
2022-08-28T17:35:43.102Z,6.07
2022-08-28T17:37:46.185Z,9.13
2022-08-28T17:39:49.284Z,5.83
2022-08-28T17:41:52.144Z,6.87
2022-08-28T17:43:55.001Z,4.77
2022-08-28T17:45:57.955Z,7.90
2022-08-28T17:48:00.860Z,5.03
2022-08-28T17:50:06.083Z,5.93
2022-08-28T17:52:09.411Z,6.87
2022-08-28T17:54:13.919Z,6.57
2022-08-28T17:56:16.957Z,6.00
2022-08-28T17:58:19.985Z,8.27
2022-08-28T18:00:23.005Z,5.63
2022-08-28T18:02:26.403Z,7.37
2022-08-28T18:04:29.652Z,8.10
2022-08-28T18:06:34.109Z,6.97
2022-08-28T18:08:36.873Z,7.97
2022-08-28T18:10:39.711Z,8.70
2022-08-28T18:12:43.227Z,10.77
2022-08-28T18:14:46.315Z,2.90
2022-08-28T18:16:49.478Z,10.40
2022-08-28T18:18:52.460Z,6.07
2022-08-28T18:20:55.428Z,6.87
2022-08-28T18:22:59.569Z,6.53
2022-08-28T18:25:04.030Z,4.73
2022-08-28T18:27:08.312Z,10.17
2022-08-28T18:29:11.742Z,6.30
2022-08-28T18:31:14.833Z,6.33
2022-08-28T18:33:22.213Z,6.70
2022-08-28T18:35:30.282Z,7.70
2022-08-28T18:37:35.104Z,9.03
2022-08-28T18:39:39.363Z,8.03
2022-08-28T18:41:43.920Z,5.13
2022-08-28T18:43:47.523Z,9.27
2022-08-28T18:45:51.504Z,5.33
2022-08-28T18:47:54.352Z,4.77
2022-08-28T18:49:57.193Z,7.23
2022-08-28T18:51:59.950Z,5.50
2022-08-28T18:54:03.278Z,4.17
2022-08-28T18:56:08.489Z,4.00
2022-08-28T18:58:15.385Z,6.13
2022-08-28T19:00:18.752Z,6.27
2022-08-28T19:02:21.647Z,4.90
2022-08-28T19:04:24.501Z,8.43
2022-08-28T19:06:27.331Z,5.47
2022-08-28T19:08:30.455Z,6.27
2022-08-28T19:10:34.901Z,8.10
2022-08-28T19:12:40.056Z,10.03
2022-08-28T19:14:42.871Z,5.73
2022-08-28T19:16:45.716Z,6.97
2022-08-28T19:18:52.785Z,6.93
2022-08-28T19:21:04.333Z,7.37
2022-08-28T19:23:07.183Z,5.27
2022-08-28T19:25:13.372Z,9.63
2022-08-28T19:27:31.838Z,6.83
2022-08-28T19:29:36.521Z,5.17
2022-08-28T19:31:39.986Z,5.90
2022-08-28T19:33:42.866Z,5.50
2022-08-28T19:35:45.765Z,6.03
2022-08-28T19:37:49.652Z,5.77
2022-08-28T19:39:56.156Z,7.83
2022-08-28T19:42:00.947Z,5.27
2022-08-28T19:44:04.335Z,10.47
2022-08-28T19:46:14.458Z,4.53
2022-08-28T19:48:23.212Z,4.97
2022-08-28T19:50:26.839Z,5.17
2022-08-28T19:52:29.897Z,8.13
2022-08-28T19:54:32.700Z,6.43
2022-08-28T19:56:35.661Z,5.10
2022-08-28T19:58:39.590Z,9.27
2022-08-28T20:00:42.497Z,8.47
2022-08-28T20:02:48.172Z,7.10
2022-08-28T20:04:51.205Z,9.77
2022-08-28T20:06:54.523Z,6.50
2022-08-28T20:08:59.304Z,9.10
2022-08-28T20:11:02.192Z,4.67
2022-08-28T20:13:05.610Z,9.37
2022-08-28T20:15:12.592Z,8.20
2022-08-28T20:17:19.670Z,6.13
2022-08-28T20:19:25.714Z,5.87
2022-08-28T20:21:37.908Z,3.67
2022-08-28T20:23:41.618Z,6.03
2022-08-28T20:25:47.714Z,5.37
2022-08-28T20:27:53.652Z,5.40
2022-08-28T20:29:58.524Z,4.87
2022-08-28T20:32:12.225Z,5.00
2022-08-28T20:34:17.190Z,4.57
2022-08-28T20:36:21.549Z,5.20
2022-08-28T20:38:24.433Z,8.27
2022-08-28T20:40:27.434Z,5.17
2022-08-28T20:42:31.715Z,9.10
2022-08-28T20:44:35.065Z,8.20
2022-08-28T20:46:41.521Z,7.93
2022-08-28T20:48:44.973Z,6.27
2022-08-28T20:50:47.777Z,5.43
2022-08-28T20:52:55.001Z,7.47
2022-08-28T20:54:58.110Z,7.97
2022-08-28T20:57:03.532Z,7.53
2022-08-28T20:59:06.675Z,7.60
2022-08-28T21:01:10.204Z,9.47
2022-08-28T21:03:13.698Z,6.60
2022-08-28T21:05:16.561Z,6.67
2022-08-28T21:07:21.331Z,6.80
2022-08-28T21:09:39.583Z,9.67
2022-08-28T21:11:49.257Z,6.00
2022-08-28T21:13:52.012Z,5.97
2022-08-28T21:15:54.776Z,6.63
2022-08-28T21:17:57.638Z,6.80
2022-08-28T21:20:02.848Z,5.70
2022-08-28T21:22:06.165Z,4.23
2022-08-28T21:24:12.441Z,5.93
2022-08-28T21:26:16.513Z,6.83
2022-08-28T21:28:19.345Z,6.03
2022-08-28T21:30:25.499Z,7.67
2022-08-28T21:32:34.291Z,4.70
2022-08-28T21:34:37.357Z,6.83
2022-08-28T21:36:46.978Z,5.50
2022-08-28T21:38:52.909Z,7.47
2022-08-28T21:40:55.781Z,4.70
2022-08-28T21:42:59.937Z,10.30
2022-08-28T21:45:02.891Z,4.30
2022-08-28T21:47:06.099Z,4.77
2022-08-28T21:49:08.912Z,5.03
2022-08-28T21:51:16.824Z,5.67
2022-08-28T21:53:20.517Z,4.53
2022-08-28T21:55:23.896Z,5.93
2022-08-28T21:57:27.524Z,5.03
2022-08-28T21:59:37.576Z,4.00
2022-08-28T22:01:41.535Z,3.93
2022-08-28T22:03:44.991Z,6.33
2022-08-28T22:05:50.061Z,3.73
2022-08-28T22:07:52.896Z,6.70
2022-08-28T22:09:55.670Z,5.43
2022-08-28T22:11:58.418Z,6.27
2022-08-28T22:14:01.600Z,3.83
2022-08-28T22:16:06.125Z,8.10
2022-08-28T22:18:09.493Z,4.83
2022-08-28T22:20:12.499Z,4.67
2022-08-28T22:22:33.333Z,4.57
2022-08-28T22:24:36.617Z,6.57
2022-08-28T22:26:39.464Z,6.07
2022-08-28T22:28:42.846Z,6.00
2022-08-28T22:30:45.713Z,4.77
2022-08-28T22:32:50.772Z,5.40
2022-08-28T22:34:55.694Z,6.00
2022-08-28T22:36:59.062Z,5.77
2022-08-28T22:39:01.882Z,6.47
2022-08-28T22:41:04.843Z,5.60
2022-08-28T22:43:07.611Z,5.87
2022-08-28T22:45:11.400Z,6.13
2022-08-28T22:47:14.168Z,5.10
2022-08-28T22:49:18.297Z,8.03
2022-08-28T22:51:21.383Z,5.33
2022-08-28T22:53:24.125Z,5.23
2022-08-28T22:55:27.046Z,5.70
2022-08-28T22:57:29.777Z,5.53
2022-08-28T22:59:32.634Z,4.63
2022-08-28T23:01:35.756Z,6.70
2022-08-28T23:03:38.824Z,4.90
2022-08-28T23:05:43.169Z,6.03
2022-08-28T23:07:46.334Z,5.80
2022-08-28T23:09:49.376Z,7.47
2022-08-28T23:11:52.205Z,5.00
2022-08-28T23:13:55.028Z,4.70
2022-08-28T23:15:58.770Z,3.67
2022-08-28T23:18:02.600Z,8.07
2022-08-28T23:20:10.089Z,6.83
2022-08-28T23:22:14.764Z,7.00
2022-08-28T23:24:18.501Z,6.03
2022-08-28T23:26:21.620Z,5.77
2022-08-28T23:28:24.615Z,5.17
2022-08-28T23:30:28.065Z,4.40
2022-08-28T23:32:30.955Z,5.70
2022-08-28T23:34:37.340Z,4.97
2022-08-28T23:36:43.450Z,6.30
2022-08-28T23:38:47.901Z,7.50
2022-08-28T23:40:50.794Z,5.17
2022-08-28T23:42:54.696Z,4.37
2022-08-28T23:44:57.882Z,4.73
2022-08-28T23:47:01.808Z,5.47
2022-08-28T23:49:05.747Z,6.33
2022-08-28T23:51:09.654Z,4.43
2022-08-28T23:53:12.791Z,6.90
2022-08-28T23:55:18.640Z,6.43
2022-08-28T23:57:21.616Z,7.50
2022-08-28T23:59:24.528Z,4.53
